Time;durP1;ratioP1;P1;durP2;ratioP2;P2;SDS_P1;SDS_P2;PMS_P1;PMS_P2;Temp;Humidity;BMP_temperature;BMP_pressure;BME280_temperature;BME280_humidity;BME280_pressure;Samples;Min_cycle;Max_cycle;Signal;HPM_P1;HPM_P2
2024/03/11 01:20:55;;;;;;;18.17;12.18;;;;;;;;;;13173539;22;20404;-83
2024/03/11 01:25:57;;;;;;;16.97;11.30;;;;;;;;;;13239600;22;20755;-83
2024/03/11 01:31:00;;;;;;;16.77;11.30;;;;;;;;;;13237660;22;20364;-82
2024/03/11 01:36:04;;;;;;;17.77;12.37;;;;;;;;;;13244887;22;20773;-82
2024/03/11 01:41:07;;;;;;;16.30;11.80;;;;;;;;;;13240600;22;20572;-83
2024/03/11 01:46:10;;;;;;;17.67;11.73;;;;;;;;;;13238854;22;21115;-82
2024/03/11 01:51:14;;;;;;;17.93;11.60;;;;;;;;;;13239571;22;20360;-82
2024/03/11 01:56:18;;;;;;;17.17;11.63;;;;;;;;;;13236859;22;20348;-83
2024/03/11 02:01:21;;;;;;;18.83;12.25;;;;;;;;;;13236690;22;20428;-82
2024/03/11 02:06:26;;;;;;;16.30;10.70;;;;;;;;;;13258757;22;20360;-82
2024/03/11 02:11:28;;;;;;;16.25;10.80;;;;;;;;;;13235336;22;20355;-82
2024/03/11 02:16:31;;;;;;;15.65;10.63;;;;;;;;;;13235968;22;20389;-81
2024/03/11 02:21:42;;;;;;;14.70;9.63;;;;;;;;;;13236187;22;20476;-82
2024/03/11 02:26:48;;;;;;;17.15;10.32;;;;;;;;;;13238880;22;20436;-82
2024/03/11 02:31:50;;;;;;;15.50;10.77;;;;;;;;;;13240871;22;20390;-81
2024/03/11 02:36:52;;;;;;;17.27;10.73;;;;;;;;;;13244076;22;20428;-83
2024/03/11 02:41:56;;;;;;;17.60;11.02;;;;;;;;;;13237600;22;20843;-83
2024/03/11 02:46:58;;;;;;;16.30;9.97;;;;;;;;;;13236813;22;20410;-82
2024/03/11 02:52:01;;;;;;;13.15;9.80;;;;;;;;;;13237156;22;20407;-82
2024/03/11 02:57:05;;;;;;;12.13;9.68;;;;;;;;;;13235739;22;20360;-82
2024/03/11 03:02:08;;;;;;;12.68;8.80;;;;;;;;;;13237239;22;20376;-82
2024/03/11 03:07:13;;;;;;;13.10;8.70;;;;;;;;;;13237281;22;20360;-83
2024/03/11 03:12:18;;;;;;;11.88;8.60;;;;;;;;;;13236389;22;20356;-83
2024/03/11 03:17:20;;;;;;;12.00;8.63;;;;;;;;;;13235799;22;20385;-83
2024/03/11 03:22:22;;;;;;;15.23;9.05;;;;;;;;;;13237964;22;20903;-83
2024/03/11 03:27:26;;;;;;;11.82;8.23;;;;;;;;;;13237084;22;20363;-83
2024/03/11 03:32:28;;;;;;;13.93;8.50;;;;;;;;;;13245961;22;20412;-83
2024/03/11 03:37:31;;;;;;;12.40;7.93;;;;;;;;;;13236585;22;20429;-82
2024/03/11 03:42:34;;;;;;;15.60;8.95;;;;;;;;;;13235685;22;20401;-83
2024/03/11 03:47:37;;;;;;;24.45;8.85;;;;;;;;;;13236580;22;20465;-81
2024/03/11 03:52:41;;;;;;;18.33;8.65;;;;;;;;;;13258134;22;20388;-82
2024/03/11 03:57:45;;;;;;;23.23;9.03;;;;;;;;;;13236385;22;20653;-82
2024/03/11 04:02:48;;;;;;;18.67;9.00;;;;;;;;;;13241273;22;20409;-82
2024/03/11 04:07:50;;;;;;;20.55;8.90;;;;;;;;;;13240133;22;20364;-82
2024/03/11 04:12:56;;;;;;;16.50;8.13;;;;;;;;;;13240723;22;20365;-82
2024/03/11 04:18:03;;;;;;;18.93;8.33;;;;;;;;;;13240968;22;20356;-82
2024/03/11 04:23:07;;;;;;;17.98;8.25;;;;;;;;;;13239487;22;20429;-81
2024/03/11 04:28:13;;;;;;;19.58;8.35;;;;;;;;;;13248740;22;20356;-82
2024/03/11 04:33:16;;;;;;;19.40;7.63;;;;;;;;;;13240235;22;20389;-82
2024/03/11 04:38:19;;;;;;;16.70;7.77;;;;;;;;;;13239652;22;20394;-82
2024/03/11 04:43:23;;;;;;;18.50;8.45;;;;;;;;;;13238487;22;20421;-83
2024/03/11 04:48:25;;;;;;;14.02;7.15;;;;;;;;;;13239279;22;20498;-82
2024/03/11 04:53:28;;;;;;;16.85;7.28;;;;;;;;;;13261650;22;20417;-82
2024/03/11 04:58:31;;;;;;;13.37;7.30;;;;;;;;;;13239119;22;20435;-82
2024/03/11 05:03:34;;;;;;;14.05;7.18;;;;;;;;;;13236690;22;20368;-82
2024/03/11 05:08:37;;;;;;;18.35;8.25;;;;;;;;;;13235213;22;20422;-82
2024/03/11 05:13:40;;;;;;;13.15;8.18;;;;;;;;;;13238047;22;20391;-82
2024/03/11 05:18:43;;;;;;;18.30;8.20;;;;;;;;;;13235000;22;20421;-82
2024/03/11 05:23:45;;;;;;;15.25;8.40;;;;;;;;;;13244480;22;20867;-82
2024/03/11 05:28:49;;;;;;;14.93;8.03;;;;;;;;;;13237271;22;20465;-81
2024/03/11 05:33:51;;;;;;;18.65;8.48;;;;;;;;;;13237197;22;20441;-81
2024/03/11 05:38:53;;;;;;;15.65;7.70;;;;;;;;;;13238094;22;20390;-81
2024/03/11 05:43:57;;;;;;;18.67;8.73;;;;;;;;;;13238345;22;20684;-82
2024/03/11 05:49:00;;;;;;;18.45;8.63;;;;;;;;;;13237907;22;20360;-81
2024/03/11 05:54:02;;;;;;;22.57;9.70;;;;;;;;;;13238746;22;20401;-81
2024/03/11 05:59:06;;;;;;;22.77;10.43;;;;;;;;;;13237720;22;20360;-81
2024/03/11 06:04:08;;;;;;;23.58;11.88;;;;;;;;;;13238059;22;20364;-81
2024/03/11 06:09:10;;;;;;;22.35;11.45;;;;;;;;;;13235569;22;20424;-82
2024/03/11 06:14:14;;;;;;;19.45;10.05;;;;;;;;;;13236438;22;20360;-81
2024/03/11 06:19:17;;;;;;;22.63;10.25;;;;;;;;;;13239936;22;20372;-81
2024/03/11 06:24:19;;;;;;;24.73;11.07;;;;;;;;;;13236160;22;21089;-82
2024/03/11 06:29:24;;;;;;;23.02;10.38;;;;;;;;;;13235386;22;20379;-82
2024/03/11 06:34:27;;;;;;;24.92;10.70;;;;;;;;;;13235694;22;20352;-81
2024/03/11 06:39:31;;;;;;;24.70;10.65;;;;;;;;;;13234835;22;20416;-81
2024/03/11 06:44:35;;;;;;;26.15;11.98;;;;;;;;;;13233424;22;20360;-83
2024/03/11 06:49:37;;;;;;;23.95;10.38;;;;;;;;;;13234398;22;20868;-83
2024/03/11 06:54:41;;;;;;;22.60;10.70;;;;;;;;;;13228928;22;20443;-82
2024/03/11 06:59:45;;;;;;;18.05;9.18;;;;;;;;;;13231735;22;20403;-83
2024/03/11 07:04:47;;;;;;;20.53;9.10;;;;;;;;;;13232371;22;20574;-82
2024/03/11 07:09:50;;;;;;;19.25;8.80;;;;;;;;;;13235560;22;20416;-83
2024/03/11 07:14:53;;;;;;;17.83;7.93;;;;;;;;;;13248480;22;20373;-82
2024/03/11 07:19:56;;;;;;;21.80;9.43;;;;;;;;;;13259313;22;20367;-83
2024/03/11 07:24:59;;;;;;;18.77;8.80;;;;;;;;;;13234531;22;20356;-83
2024/03/11 07:30:06;;;;;;;17.42;7.85;;;;;;;;;;13232773;22;20421;-83
2024/03/11 07:35:09;;;;;;;15.13;8.13;;;;;;;;;;13233220;22;20694;-82
2024/03/11 07:40:12;;;;;;;15.48;7.82;;;;;;;;;;13238541;22;20382;-83
2024/03/11 07:45:16;;;;;;;15.93;8.48;;;;;;;;;;13239543;22;20664;-83
2024/03/11 07:50:19;;;;;;;16.70;8.07;;;;;;;;;;13239554;22;20737;-82
2024/03/11 07:55:24;;;;;;;12.10;7.15;;;;;;;;;;13261883;22;20673;-83
2024/03/11 08:00:31;;;;;;;12.32;6.65;;;;;;;;;;13238915;22;20375;-83
2024/03/11 08:05:34;;;;;;;11.48;6.97;;;;;;;;;;13239283;22;20364;-82
2024/03/11 08:10:36;;;;;;;14.73;7.20;;;;;;;;;;13239002;22;20429;-82
2024/03/11 08:15:40;;;;;;;12.88;7.50;;;;;;;;;;13242319;22;20360;-81
2024/03/11 08:20:43;;;;;;;14.27;7.60;;;;;;;;;;13238525;22;20375;-82
2024/03/11 08:25:47;;;;;;;13.50;7.43;;;;;;;;;;13239138;22;20419;-83
2024/03/11 08:30:51;;;;;;;13.23;7.47;;;;;;;;;;13239476;22;20356;-83
2024/03/11 08:35:55;;;;;;;12.32;7.28;;;;;;;;;;13239541;22;20430;-82
2024/03/11 08:40:58;;;;;;;11.20;6.90;;;;;;;;;;13237413;22;20372;-82
2024/03/11 08:46:02;;;;;;;12.48;7.13;;;;;;;;;;13238233;22;20665;-82
2024/03/11 08:51:04;;;;;;;11.03;6.20;;;;;;;;;;13261160;22;20348;-83
2024/03/11 08:56:10;;;;;;;9.48;5.68;;;;;;;;;;13237430;22;20360;-82
2024/03/11 09:01:13;;;;;;;9.63;5.57;;;;;;;;;;13253843;22;20372;-83
2024/03/11 09:06:16;;;;;;;10.80;5.50;;;;;;;;;;13239102;22;20425;-82
2024/03/11 09:11:18;;;;;;;9.20;5.13;;;;;;;;;;13243083;22;20448;-82
2024/03/11 09:16:22;;;;;;;11.00;6.13;;;;;;;;;;13239191;22;20439;-82
2024/03/11 09:21:24;;;;;;;8.77;5.78;;;;;;;;;;13236720;22;20843;-83
2024/03/11 09:26:26;;;;;;;10.73;5.95;;;;;;;;;;13237765;22;20831;-82
2024/03/11 09:31:30;;;;;;;11.30;6.15;;;;;;;;;;13235606;22;20420;-82
2024/03/11 09:36:32;;;;;;;10.20;6.00;;;;;;;;;;13259933;22;20355;-81
2024/03/11 09:41:41;;;;;;;10.52;6.53;;;;;;;;;;13237844;22;20371;-83
2024/03/11 09:46:46;;;;;;;10.38;6.40;;;;;;;;;;13237763;22;20367;-83
2024/03/11 09:51:51;;;;;;;10.05;6.40;;;;;;;;;;13210289;22;20438;-82
2024/03/11 09:56:56;;;;;;;12.07;6.60;;;;;;;;;;13237619;22;20416;-83
2024/03/11 10:02:01;;;;;;;12.30;7.07;;;;;;;;;;13237817;22;20380;-82
2024/03/11 10:07:07;;;;;;;13.05;7.60;;;;;;;;;;13237191;22;20375;-82
2024/03/11 10:12:09;;;;;;;10.60;7.10;;;;;;;;;;13240864;22;20819;-83
2024/03/11 10:17:21;;;;;;;10.90;7.18;;;;;;;;;;13234193;22;20881;-84
2024/03/11 10:22:23;;;;;;;17.20;7.40;;;;;;;;;;13234316;22;21394;-82
2024/03/11 10:27:31;;;;;;;12.00;7.22;;;;;;;;;;13234289;22;20368;-82
2024/03/11 10:32:38;;;;;;;10.25;6.90;;;;;;;;;;13234668;22;20432;-81
2024/03/11 10:37:42;;;;;;;9.73;6.75;;;;;;;;;;13233383;22;20359;-82
2024/03/11 10:42:53;;;;;;;9.27;6.37;;;;;;;;;;13233207;22;20376;-83
2024/03/11 10:48:00;;;;;;;8.13;5.43;;;;;;;;;;13233430;22;20425;-82
2024/03/11 10:53:03;;;;;;;8.25;5.43;;;;;;;;;;13233291;22;20356;-83
2024/03/11 10:58:09;;;;;;;8.48;5.45;;;;;;;;;;13256059;22;20401;-81
2024/03/11 11:03:14;;;;;;;7.90;5.40;;;;;;;;;;13235835;22;20448;-82
2024/03/11 11:08:17;;;;;;;5.20;3.60;;;;;;;;;;13234781;22;20389;-83
2024/03/11 11:13:23;;;;;;;7.53;5.50;;;;;;;;;;13241061;22;20409;-82
2024/03/11 11:18:28;;;;;;;10.20;5.57;;;;;;;;;;13057325;22;20383;-82
2024/03/11 11:23:34;;;;;;;6.35;4.35;;;;;;;;;;12973303;22;20382;-82
2024/03/11 11:28:38;;;;;;;7.63;5.10;;;;;;;;;;12976625;22;20392;-81
2024/03/11 11:33:54;;;;;;;8.18;5.22;;;;;;;;;;12978849;22;20405;-81
2024/03/11 11:38:58;;;;;;;7.83;4.97;;;;;;;;;;12978870;22;20366;-83
2024/03/11 11:44:00;;;;;;;5.65;4.25;;;;;;;;;;12975295;22;20386;-83
2024/03/11 11:49:17;;;;;;;4.60;3.72;;;;;;;;;;12976296;22;20367;-82
2024/03/11 11:54:22;;;;;;;5.13;3.90;;;;;;;;;;12974890;22;20464;-83
2024/03/11 11:59:24;;;;;;;6.13;3.13;;;;;;;;;;12976395;22;20367;-83
2024/03/11 12:04:29;;;;;;;5.35;2.67;;;;;;;;;;12975020;22;20386;-83
2024/03/11 12:09:34;;;;;;;3.60;2.40;;;;;;;;;;12973956;22;20363;-83
2024/03/11 12:14:36;;;;;;;3.23;2.03;;;;;;;;;;12975646;22;20414;-82
2024/03/11 12:19:40;;;;;;;3.83;2.17;;;;;;;;;;12967543;22;20456;-82
2024/03/11 12:24:44;;;;;;;4.05;2.03;;;;;;;;;;12970855;22;20382;-82
2024/03/11 12:29:48;;;;;;;2.08;1.60;;;;;;;;;;12971601;22;20387;-83
2024/03/11 12:34:52;;;;;;;3.78;2.30;;;;;;;;;;12971032;22;20409;-82
2024/03/11 12:39:55;;;;;;;4.50;2.70;;;;;;;;;;12975037;22;20374;-81
2024/03/11 12:44:57;;;;;;;4.65;2.50;;;;;;;;;;12970659;22;20417;-83
2024/03/11 12:50:01;;;;;;;4.43;2.70;;;;;;;;;;12969754;22;20382;-82
2024/03/11 12:55:08;;;;;;;3.90;2.90;;;;;;;;;;12971679;22;20382;-82
2024/03/11 13:00:14;;;;;;;3.42;2.90;;;;;;;;;;12971450;22;20371;-82
2024/03/11 13:05:18;;;;;;;3.70;2.00;;;;;;;;;;12968477;22;21290;-83
2024/03/11 13:10:20;;;;;;;3.97;2.22;;;;;;;;;;12967866;22;20792;-82
2024/03/11 13:15:27;;;;;;;5.13;2.00;;;;;;;;;;12939251;22;20390;-81
2024/03/11 13:20:38;;;;;;;3.87;2.20;;;;;;;;;;12970548;22;20794;-81
2024/03/11 13:25:40;;;;;;;2.60;2.00;;;;;;;;;;12945836;22;20441;-82
2024/03/11 13:30:44;;;;;;;4.05;2.30;;;;;;;;;;12972138;22;20424;-82
2024/03/11 13:35:48;;;;;;;3.55;2.53;;;;;;;;;;12972303;22;20428;-82
2024/03/11 13:40:50;;;;;;;4.25;2.90;;;;;;;;;;12979510;22;20428;-82
2024/03/11 13:45:54;;;;;;;4.53;3.03;;;;;;;;;;12972937;22;20386;-82
2024/03/11 13:50:58;;;;;;;4.43;3.05;;;;;;;;;;12975155;22;20417;-82
2024/03/11 13:56:04;;;;;;;3.15;2.35;;;;;;;;;;12974172;22;20839;-83
2024/03/11 14:01:09;;;;;;;4.85;3.00;;;;;;;;;;12974464;22;20394;-83
2024/03/11 14:06:13;;;;;;;3.53;2.20;;;;;;;;;;12974568;22;20722;-83
2024/03/11 14:11:15;;;;;;;5.03;3.03;;;;;;;;;;12974876;22;20374;-82
2024/03/11 14:16:18;;;;;;;6.15;2.70;;;;;;;;;;12973921;22;20379;-83
2024/03/11 14:21:24;;;;;;;3.87;2.43;;;;;;;;;;12974074;22;20785;-83
2024/03/11 14:26:27;;;;;;;4.73;2.53;;;;;;;;;;12975159;22;20425;-82
2024/03/11 14:31:29;;;;;;;6.03;3.10;;;;;;;;;;12976706;22;20435;-82
2024/03/11 14:36:33;;;;;;;5.50;3.13;;;;;;;;;;12974121;22;20366;-82
2024/03/11 14:41:35;;;;;;;4.43;2.85;;;;;;;;;;12974916;22;20741;-82
2024/03/11 14:46:41;;;;;;;3.40;2.50;;;;;;;;;;12979316;22;20907;-83
2024/03/11 14:51:45;;;;;;;4.82;2.85;;;;;;;;;;12976156;22;20374;-83
2024/03/11 14:56:48;;;;;;;7.00;2.60;;;;;;;;;;12976184;22;20750;-82
2024/03/11 15:01:53;;;;;;;4.97;2.00;;;;;;;;;;12974960;22;20704;-82
2024/03/11 15:06:57;;;;;;;3.10;1.83;;;;;;;;;;12975826;22;20367;-82
2024/03/11 15:11:59;;;;;;;2.60;1.50;;;;;;;;;;12975555;22;20413;-82
2024/03/11 15:17:02;;;;;;;2.10;1.17;;;;;;;;;;12964878;22;20374;-83
2024/03/11 15:22:06;;;;;;;2.55;1.42;;;;;;;;;;12965812;22;20374;-83
2024/03/11 15:27:08;;;;;;;2.28;0.82;;;;;;;;;;12969010;22;20374;-83
2024/03/11 15:32:11;;;;;;;3.30;1.20;;;;;;;;;;12967411;22;20366;-82
2024/03/11 15:37:15;;;;;;;2.78;1.30;;;;;;;;;;12969788;22;20428;-82
2024/03/11 15:42:18;;;;;;;3.47;1.67;;;;;;;;;;12968812;22;20480;-83
2024/03/11 15:47:21;;;;;;;3.63;1.80;;;;;;;;;;12972120;22;20366;-82
2024/03/11 15:52:25;;;;;;;0.82;0.70;;;;;;;;;;12968901;22;20370;-82
2024/03/11 15:57:28;;;;;;;1.10;0.60;;;;;;;;;;12973607;22;20370;-83
2024/03/11 16:02:30;;;;;;;1.83;0.70;;;;;;;;;;12971656;22;20759;-82
2024/03/11 16:07:34;;;;;;;2.15;0.85;;;;;;;;;;12972255;22;20412;-82
2024/03/11 16:12:36;;;;;;;2.37;1.10;;;;;;;;;;12968706;22;20370;-82
2024/03/11 16:17:40;;;;;;;1.08;0.70;;;;;;;;;;12963901;22;20424;-83
2024/03/11 16:22:44;;;;;;;2.05;1.00;;;;;;;;;;12962840;22;20386;-82
2024/03/11 16:27:47;;;;;;;3.30;1.38;;;;;;;;;;12963414;22;20382;-80
2024/03/11 16:32:51;;;;;;;3.67;1.98;;;;;;;;;;12961654;22;21112;-80
2024/03/11 16:37:56;;;;;;;5.20;2.00;;;;;;;;;;12959611;22;20464;-81
2024/03/11 16:43:10;;;;;;;3.80;2.33;;;;;;;;;;12956750;22;20386;-81
2024/03/11 16:48:13;;;;;;;6.27;3.03;;;;;;;;;;12961614;22;20378;-81
2024/03/11 16:53:20;;;;;;;4.70;3.40;;;;;;;;;;12964237;22;20370;-80
2024/03/11 16:58:23;;;;;;;4.70;3.45;;;;;;;;;;12956336;22;20371;-81
2024/03/11 17:03:28;;;;;;;6.30;3.70;;;;;;;;;;12957267;22;20757;-81
2024/03/11 17:08:32;;;;;;;7.32;4.07;;;;;;;;;;12955790;22;20378;-81
2024/03/11 17:13:37;;;;;;;9.13;4.47;;;;;;;;;;12957309;22;20378;-81
2024/03/11 17:18:40;;;;;;;6.45;4.28;;;;;;;;;;12962991;22;20378;-82
2024/03/11 17:23:44;;;;;;;6.85;3.95;;;;;;;;;;12967448;22;20386;-81
2024/03/11 17:28:46;;;;;;;4.72;4.22;;;;;;;;;;12968137;22;20441;-84
2024/03/11 17:33:50;;;;;;;6.10;3.80;;;;;;;;;;12976302;22;20405;-82
2024/03/11 17:38:54;;;;;;;6.60;3.97;;;;;;;;;;12964466;22;20379;-83
2024/03/11 17:44:00;;;;;;;6.53;4.03;;;;;;;;;;12964784;22;20421;-83
2024/03/11 17:49:02;;;;;;;9.70;4.57;;;;;;;;;;12965818;22;20695;-83
2024/03/11 17:54:06;;;;;;;9.93;5.07;;;;;;;;;;12970359;22;20378;-83
2024/03/11 17:59:09;;;;;;;11.77;7.33;;;;;;;;;;12972308;22;20392;-83
2024/03/11 18:04:11;;;;;;;17.38;13.18;;;;;;;;;;12967675;22;20710;-79
2024/03/11 18:09:16;;;;;;;17.75;12.05;;;;;;;;;;12970910;22;20830;-81
2024/03/11 18:14:19;;;;;;;12.23;8.63;;;;;;;;;;12970205;22;20395;-82
2024/03/11 18:19:23;;;;;;;13.15;8.75;;;;;;;;;;12961570;22;20754;-82
2024/03/11 18:24:26;;;;;;;18.50;10.20;;;;;;;;;;12968621;22;20386;-82
2024/03/11 18:29:34;;;;;;;14.95;9.80;;;;;;;;;;12970226;22;20374;-83
2024/03/11 18:34:46;;;;;;;16.83;9.75;;;;;;;;;;12969441;22;20423;-82
2024/03/11 18:39:49;;;;;;;16.67;10.85;;;;;;;;;;12966315;22;20443;-82
2024/03/11 18:44:52;;;;;;;18.30;10.97;;;;;;;;;;12966461;22;20378;-83
2024/03/11 18:49:55;;;;;;;20.08;12.63;;;;;;;;;;12979124;22;20370;-83
2024/03/11 18:54:59;;;;;;;17.88;11.57;;;;;;;;;;12967604;22;20378;-82
2024/03/11 19:00:01;;;;;;;17.85;12.00;;;;;;;;;;12971628;22;20387;-81
2024/03/11 19:05:04;;;;;;;29.42;17.73;;;;;;;;;;12970182;22;20382;-83
2024/03/11 19:10:11;;;;;;;25.42;17.38;;;;;;;;;;12968596;22;20367;-82
2024/03/11 19:15:14;;;;;;;18.52;11.85;;;;;;;;;;12937747;22;20383;-81
2024/03/11 19:20:20;;;;;;;21.27;13.48;;;;;;;;;;12962367;22;20749;-82
2024/03/11 19:25:26;;;;;;;20.85;12.48;;;;;;;;;;12960584;22;20390;-83
2024/03/11 19:30:29;;;;;;;23.60;15.10;;;;;;;;;;12963495;22;20386;-83
2024/03/11 19:35:32;;;;;;;25.73;15.45;;;;;;;;;;12958099;22;20452;-82
2024/03/11 19:40:49;;;;;;;23.55;15.20;;;;;;;;;;12957077;22;20382;-83
2024/03/11 19:46:32;;;;;;;27.48;15.98;;;;;;;;;;12960852;22;20394;-82
2024/03/11 19:52:19;;;;;;;27.43;16.40;;;;;;;;;;12963226;22;20464;-83
2024/03/11 19:57:57;;;;;;;27.53;16.00;;;;;;;;;;12964772;22;20702;-82
2024/03/11 20:03:17;;;;;;;31.88;18.27;;;;;;;;;;12962460;22;20386;-81
2024/03/11 20:08:36;;;;;;;35.67;20.87;;;;;;;;;;12959041;22;20382;-82
2024/03/11 20:14:02;;;;;;;40.17;22.42;;;;;;;;;;12961440;22;20386;-82
2024/03/11 20:19:22;;;;;;;42.33;23.15;;;;;;;;;;12957688;22;20736;-82
2024/03/11 20:24:52;;;;;;;41.65;21.48;;;;;;;;;;12959496;22;20383;-82
2024/03/11 20:29:57;;;;;;;43.77;23.87;;;;;;;;;;12963630;22;20379;-83
2024/03/11 20:35:01;;;;;;;34.30;19.07;;;;;;;;;;12961215;22;20456;-83
2024/03/11 20:40:05;;;;;;;42.95;21.63;;;;;;;;;;12975996;22;20382;-82
2024/03/11 20:45:08;;;;;;;32.58;18.23;;;;;;;;;;12987149;22;20421;-82
2024/03/11 20:50:12;;;;;;;36.08;20.33;;;;;;;;;;12969373;22;21037;-81
2024/03/11 20:55:15;;;;;;;35.85;19.38;;;;;;;;;;12963780;22;20436;-81
2024/03/11 21:00:18;;;;;;;38.47;20.20;;;;;;;;;;12966207;22;20362;-82
2024/03/11 21:05:22;;;;;;;38.67;21.00;;;;;;;;;;12964486;22;20448;-81
2024/03/11 21:10:25;;;;;;;35.78;20.63;;;;;;;;;;12966267;22;20382;-81
2024/03/11 21:15:28;;;;;;;35.20;19.97;;;;;;;;;;12967098;22;20820;-82
2024/03/11 21:21:06;;;;;;;41.90;20.65;;;;;;;;;;12965832;22;20379;-82
2024/03/11 21:31:37;;;;;;;38.95;20.60;;;;;;;;;;12918763;22;20459;-81
2024/03/11 21:36:42;;;;;;;37.17;19.45;;;;;;;;;;12967576;22;20745;-83
2024/03/11 21:41:44;;;;;;;37.17;20.38;;;;;;;;;;12967786;22;20383;-82
2024/03/11 21:46:46;;;;;;;38.38;20.33;;;;;;;;;;12969427;22;20382;-82
2024/03/11 21:51:52;;;;;;;38.70;21.08;;;;;;;;;;12968932;22;20409;-82
2024/03/11 21:56:55;;;;;;;39.95;21.98;;;;;;;;;;12968744;22;20436;-82
2024/03/11 22:01:57;;;;;;;35.90;21.50;;;;;;;;;;12967959;22;20382;-81
2024/03/11 22:07:01;;;;;;;40.57;21.57;;;;;;;;;;12968955;22;20833;-81
2024/03/11 22:12:07;;;;;;;40.53;22.05;;;;;;;;;;12964322;22;20406;-82
2024/03/11 22:17:09;;;;;;;40.58;22.02;;;;;;;;;;12965875;22;20379;-79
2024/03/11 22:22:13;;;;;;;39.17;21.60;;;;;;;;;;12964148;22;20810;-82
2024/03/11 22:27:15;;;;;;;46.72;24.25;;;;;;;;;;12962632;22;20386;-81
2024/03/11 22:32:17;;;;;;;48.67;23.40;;;;;;;;;;12964319;22;20409;-81
2024/03/11 22:37:21;;;;;;;44.50;23.50;;;;;;;;;;12968143;22;20448;-80
2024/03/11 22:42:26;;;;;;;43.72;22.58;;;;;;;;;;12966250;22;20448;-81
2024/03/11 22:47:28;;;;;;;40.17;20.87;;;;;;;;;;12963708;22;20390;-82
2024/03/11 22:52:32;;;;;;;39.47;20.67;;;;;;;;;;12967164;22;20424;-82
2024/03/11 22:57:36;;;;;;;42.97;21.45;;;;;;;;;;12974774;22;20370;-81
2024/03/11 23:02:41;;;;;;;37.80;20.02;;;;;;;;;;12971908;22;20831;-82
2024/03/11 23:07:45;;;;;;;41.17;20.03;;;;;;;;;;12969853;22;20409;-81
2024/03/11 23:12:49;;;;;;;42.78;20.55;;;;;;;;;;12969903;22;20871;-82
2024/03/11 23:17:51;;;;;;;42.90;18.70;;;;;;;;;;12970327;22;20647;-81
2024/03/11 23:22:54;;;;;;;42.00;18.87;;;;;;;;;;12970940;22;20371;-81
2024/03/11 23:27:59;;;;;;;45.63;18.58;;;;;;;;;;12976467;22;20383;-81
2024/03/11 23:33:02;;;;;;;44.60;17.70;;;;;;;;;;12977250;22;20366;-81
2024/03/11 23:38:08;;;;;;;44.87;18.50;;;;;;;;;;12976671;22;20375;-81
2024/03/11 23:43:10;;;;;;;43.55;17.92;;;;;;;;;;12975800;22;20374;-82
2024/03/11 23:48:13;;;;;;;43.05;18.55;;;;;;;;;;12976555;22;20386;-81
2024/03/11 23:53:17;;;;;;;42.03;18.38;;;;;;;;;;12973079;22;20928;-81
2024/03/11 23:58:19;;;;;;;45.38;20.35;;;;;;;;;;12975895;22;20834;-81
